Погода Колимана неделю

Колима, Мексика

21 - 27 февраля
  • 21февраля
    Сегодня
    +18°
    +36°
    Ясно и безоблачно
    ВремяПогодаТемператураВлажностьДавлениеВетер, м/сВероятность осадков
    00:00Ясно и безоблачно+20°C80 %723 мм1.2 м/с1 %
    03:00Ясно и безоблачно+19°C75 %722 мм1.4 м/с1 %
    06:00Ясно и безоблачно+19°C76 %722 мм0.9 м/с1 %
    09:00Ясно и безоблачно+22°C62 %723 мм0.9 м/с1 %
    12:00Ясно и безоблачно+31°C35 %723 мм1.0 м/с1 %
    15:00Ясно и безоблачно+35°C32 %720 мм3.1 м/с1 %
    18:00Ясно и безоблачно+32°C50 %720 мм3.2 м/с1 %
    21:00Ясно и безоблачно+24°C61 %722 мм0.3 м/с1 %
  • 22февраля
    Четверг
    +18°
    +34°
    Практически безоблачно
    ВремяПогодаТемператураВлажностьДавлениеВетер, м/сВероятность осадков
    00:00Ясно и безоблачно+22°C76 %721 мм0.7 м/с1 %
    03:00Ясно и безоблачно+21°C76 %720 мм1.1 м/с1 %
    06:00Ясно и безоблачно+19°C75 %719 мм0.8 м/с1 %
    09:00Ясно и безоблачно+23°C60 %721 мм0.8 м/с1 %
    12:00Ясно и безоблачно+32°C31 %721 мм1.4 м/с1 %
    15:00Практически безоблачно+33°C40 %719 мм4.4 м/с1 %
    18:00Ясно и безоблачно+31°C58 %718 мм2.7 м/с1 %
    21:00Ясно и безоблачно+24°C79 %719 мм0.4 м/с1 %
  • 23февраля
    Пятница
    +20°
    +33°
    Небольшая облачность
    ВремяПогодаТемператураВлажностьДавлениеВетер, м/сВероятность осадков
    00:00Ясно и безоблачно+22°C78 %718 мм1.0 м/с1 %
    03:00Ясно и безоблачно+21°C74 %717 мм1.0 м/с1 %
    06:00Ясно и безоблачно+19°C70 %717 мм0.5 м/с1 %
    09:00Ясно и безоблачно+23°C58 %719 мм0.1 м/с1 %
    12:00Ясно и безоблачно+31°C34 %719 мм1.9 м/с1 %
    15:00Небольшая облачность+33°C52 %717 мм3.6 м/с1 %
    18:00Ясно и безоблачно+31°C65 %717 мм2.8 м/с1 %
    21:00Ясно и безоблачно+24°C87 %718 мм0.4 м/с1 %
  • 24февраля
    Суббота
    +19°
    +33°
    Облачно с прояснениями
    ВремяПогодаТемператураВлажностьДавлениеВетер, м/сВероятность осадков
    00:00Ясно и безоблачно+22°C88 %719 мм0.6 м/с1 %
    03:00Ясно и безоблачно+21°C82 %718 мм0.8 м/с1 %
    06:00Небольшая облачность+20°C85 %719 мм0.1 м/с1 %
    09:00Небольшая облачность+22°C90 %721 мм0.2 м/с1 %
    12:00Облачно с прояснениями+30°C52 %721 мм2.0 м/с1 %
    15:00Облачно с прояснениями+33°C55 %720 мм4.0 м/с1 %
    18:00Облачно с прояснениями+30°C70 %720 мм3.2 м/с1 %
    21:00Практически безоблачно+24°C87 %721 мм0.4 м/с1 %
  • 25февраля
    Воскресенье
    +19°
    +35°
    Практически безоблачно
    ВремяПогодаТемператураВлажностьДавлениеВетер, м/сВероятность осадков
    00:00Ясно и безоблачно+22°C88 %721 мм0.7 м/с1 %
    03:00Практически безоблачно+21°C87 %720 мм0.6 м/с1 %
    06:00Небольшая облачность+20°C87 %720 мм0.3 м/с1 %
    09:00Практически безоблачно+23°C76 %722 мм0.3 м/с1 %
    12:00Небольшая облачность+30°C52 %722 мм2.0 м/с1 %
    15:00Практически безоблачно+33°C53 %721 мм3.8 м/с1 %
    18:00Ясно и безоблачно+31°C71 %721 мм3.1 м/с1 %
    21:00Ясно и безоблачно+24°C93 %722 мм0.5 м/с1 %
Мы используем cookies
Соглашаюсь